Time;durP1;ratioP1;P1;durP2;ratioP2;P2;SDS_P1;SDS_P2;PMS_P1;PMS_P2;Temp;Humidity;BMP_temperature;BMP_pressure;BME280_temperature;BME280_humidity;BME280_pressure;Samples;Min_cycle;Max_cycle;Signal;HPM_P1;HPM_P2
2023/03/01 00:01:00;;;;;;;;;;;;;;;;;;5091736;28;1947;-42
2023/03/01 00:03:27;;;;;;;;;;;;;;;;;;5091751;28;2123;-41
2023/03/01 00:05:54;;;;;;;;;;;;;;;;;;5078596;28;1909;-43
2023/03/01 00:08:22;;;;;;;;;;;;;;;;;;5071959;28;1860;-44
2023/03/01 00:10:49;;;;;;;;;;;;;;;;;;5071658;28;1769;-42
2023/03/01 00:13:16;;;;;;;;;;;;;;;;;;5071721;28;1563;-43
2023/03/01 00:15:44;;;;;;;;;;;;;;;;;;5071603;28;1834;-42
2023/03/01 00:18:11;;;;;;;;;;;;;;;;;;5071382;28;2130;-42
2023/03/01 00:20:38;;;;;;;;;;;;;;;;;;5071475;28;1763;-42
2023/03/01 00:23:05;;;;;;;;;;;;;;;;;;5071797;28;1960;-42
2023/03/01 00:25:32;;;;;;;;;;;;;;;;;;5071310;28;1765;-43
2023/03/01 00:27:59;;;;;;;;;;;;;;;;;;5071239;28;2205;-42
2023/03/01 00:30:26;;;;;;;;;;;;;;;;;;5071259;28;1966;-45
2023/03/01 00:32:54;;;;;;;;;;;;;;;;;;5086960;28;1944;-44
2023/03/01 00:35:22;;;;;;;;;;;;;;;;;;5090157;28;1795;-42
2023/03/01 00:37:57;;;;;;;;;;;;;;;;;;5091103;28;1543;-45
2023/03/01 00:40:25;;;;;;;;;;;;;;;;;;5091616;28;1747;-43
2023/03/01 00:42:52;;;;;;;;;;;;;;;;;;5091620;28;2176;-49
2023/03/01 00:45:19;;;;;;;;;;;;;;;;;;5091659;28;2111;-49
2023/03/01 00:47:48;;;;;;;;;;;;;;;;;;5091372;28;2030;-43
2023/03/01 00:50:15;;;;;;;;;;;;;;;;;;5091086;28;2063;-43
2023/03/01 00:52:42;;;;;;;;;;;;;;;;;;5089973;28;2104;-44
2023/03/01 00:55:11;;;;;;;;;;;;;;;;;;5090201;28;1904;-42
2023/03/01 00:57:39;;;;;;;;;;;;;;;;;;5089880;28;1836;-44
2023/03/01 01:00:06;;;;;;;;;;;;;;;;;;5091161;28;1914;-43
2023/03/01 01:02:33;;;;;;;;;;;;;;;;;;5091053;28;1863;-42
2023/03/01 01:05:01;;;;;;;;;;;;;;;;;;5085221;28;1289;-42
2023/03/01 01:07:28;;;;;;;;;;;;;;;;;;5070937;28;1874;-41
2023/03/01 01:09:55;;;;;;;;;;;;;;;;;;5070596;28;1740;-43
2023/03/01 01:12:22;;;;;;;;;;;;;;;;;;5069834;28;1749;-42
2023/03/01 01:14:50;;;;;;;;;;;;;;;;;;5071081;28;1915;-41
2023/03/01 01:17:17;;;;;;;;;;;;;;;;;;5071460;28;1956;-43
2023/03/01 01:19:44;;;;;;;;;;;;;;;;;;5070804;28;1983;-43
2023/03/01 01:22:12;;;;;;;;;;;;;;;;;;5070770;28;1868;-43
2023/03/01 01:24:39;;;;;;;;;;;;;;;;;;5070815;28;1822;-42
2023/03/01 01:27:07;;;;;;;;;;;;;;;;;;5070771;28;1978;-42
2023/03/01 01:29:34;;;;;;;;;;;;;;;;;;5070680;28;1517;-42
2023/03/01 01:32:01;;;;;;;;;;;;;;;;;;5080195;28;1812;-42
2023/03/01 01:34:28;;;;;;;;;;;;;;;;;;5090548;28;1778;-42
2023/03/01 01:36:55;;;;;;;;;;;;;;;;;;5091389;28;1645;-43
2023/03/01 01:39:22;;;;;;;;;;;;;;;;;;5090906;28;1950;-45
2023/03/01 01:41:50;;;;;;;;;;;;;;;;;;5090707;28;1682;-42
2023/03/01 01:44:23;;;;;;;;;;;;;;;;;;5089280;28;1890;-42
2023/03/01 01:46:53;;;;;;;;;;;;;;;;;;5090608;28;1438;-42
2023/03/01 01:49:27;;;;;;;;;;;;;;;;;;5092195;28;1531;-43
2023/03/01 01:52:04;;;;;;;;;;;;;;;;;;5094470;28;1972;-42
2023/03/01 01:54:36;;;;;;;;;;;;;;;;;;5077334;28;1613;-43
2023/03/01 01:57:06;;;;;;;;;;;;;;;;;;5072793;28;1840;-43
2023/03/01 01:59:34;;;;;;;;;;;;;;;;;;5072574;28;1957;-42
2023/03/01 02:02:03;;;;;;;;;;;;;;;;;;5074036;28;2192;-42
2023/03/01 02:04:32;;;;;;;;;;;;;;;;;;5075304;28;1867;-42
2023/03/01 02:07:02;;;;;;;;;;;;;;;;;;5094066;28;1791;-44
2023/03/01 02:09:30;;;;;;;;;;;;;;;;;;5094221;28;1825;-42
2023/03/01 02:11:58;;;;;;;;;;;;;;;;;;5092885;28;1485;-44
2023/03/01 02:14:26;;;;;;;;;;;;;;;;;;5074181;28;2273;-42
2023/03/01 02:16:53;;;;;;;;;;;;;;;;;;5073561;28;1856;-42
2023/03/01 02:19:40;;;;;;;;;;;;;;;;;;5073636;28;2137;-42
2023/03/01 02:22:17;;;;;;;;;;;;;;;;;;5073075;28;1622;-42
2023/03/01 02:25:03;;;;;;;;;;;;;;;;;;5072100;28;1672;-41
2023/03/01 02:27:41;;;;;;;;;;;;;;;;;;5073402;28;1838;-43
2023/03/01 02:30:12;;;;;;;;;;;;;;;;;;5073522;28;1808;-49
2023/03/01 02:32:41;;;;;;;;;;;;;;;;;;5088075;28;1972;-43
2023/03/01 02:35:10;;;;;;;;;;;;;;;;;;5080634;28;1948;-43
2023/03/01 02:37:38;;;;;;;;;;;;;;;;;;5072003;28;1621;-42
2023/03/01 02:40:12;;;;;;;;;;;;;;;;;;5073296;28;1980;-42
2023/03/01 02:42:55;;;;;;;;;;;;;;;;;;5072081;28;2237;-45
2023/03/01 02:45:23;;;;;;;;;;;;;;;;;;5071839;28;1612;-43
2023/03/01 02:47:53;;;;;;;;;;;;;;;;;;5073266;28;1796;-42
2023/03/01 02:50:29;;;;;;;;;;;;;;;;;;5073155;28;2088;-43
2023/03/01 02:52:57;;;;;;;;;;;;;;;;;;5073368;28;1827;-44
2023/03/01 02:55:24;;;;;;;;;;;;;;;;;;5073134;28;1816;-41
2023/03/01 02:57:51;;;;;;;;;;;;;;;;;;5072849;28;2193;-44
2023/03/01 03:00:46;;;;;;;;;;;;;;;;;;5071057;28;1956;-43
2023/03/01 03:03:19;;;;;;;;;;;;;;;;;;5071403;28;1579;-42
2023/03/01 03:05:48;;;;;;;;;;;;;;;;;;5072828;28;1507;-42
2023/03/01 03:08:23;;;;;;;;;;;;;;;;;;5072722;28;2113;-42
2023/03/01 03:10:52;;;;;;;;;;;;;;;;;;5071577;28;1497;-42
2023/03/01 03:13:21;;;;;;;;;;;;;;;;;;5072267;28;2290;-41
2023/03/01 03:15:49;;;;;;;;;;;;;;;;;;5072527;28;2006;-42
2023/03/01 03:18:19;;;;;;;;;;;;;;;;;;5071398;28;2219;-42
2023/03/01 03:20:52;;;;;;;;;;;;;;;;;;5071812;28;2005;-42
2023/03/01 03:23:20;;;;;;;;;;;;;;;;;;5072467;28;2050;-42
2023/03/01 03:25:48;;;;;;;;;;;;;;;;;;5072323;28;1760;-41
2023/03/01 03:28:16;;;;;;;;;;;;;;;;;;5071209;28;1595;-42
2023/03/01 03:30:43;;;;;;;;;;;;;;;;;;5072358;28;1868;-42
2023/03/01 03:33:11;;;;;;;;;;;;;;;;;;5091276;28;1844;-41
2023/03/01 03:35:44;;;;;;;;;;;;;;;;;;5092414;28;2368;-42
2023/03/01 03:38:18;;;;;;;;;;;;;;;;;;5092667;28;1889;-42
2023/03/01 03:40:47;;;;;;;;;;;;;;;;;;5092151;28;1920;-42
2023/03/01 03:43:16;;;;;;;;;;;;;;;;;;5092449;28;1558;-43
2023/03/01 03:45:46;;;;;;;;;;;;;;;;;;5092249;28;2069;-42
2023/03/01 03:48:17;;;;;;;;;;;;;;;;;;5092428;28;2068;-42
2023/03/01 03:50:48;;;;;;;;;;;;;;;;;;5092060;28;1911;-43
2023/03/01 03:53:15;;;;;;;;;;;;;;;;;;5092152;28;1990;-42
2023/03/01 03:55:44;;;;;;;;;;;;;;;;;;5078528;28;2298;-42
2023/03/01 03:58:11;;;;;;;;;;;;;;;;;;5071691;28;1818;-42
2023/03/01 04:00:40;;;;;;;;;;;;;;;;;;5071689;28;1975;-41
2023/03/01 04:03:07;;;;;;;;;;;;;;;;;;5071813;28;1690;-43
2023/03/01 04:05:35;;;;;;;;;;;;;;;;;;5082110;28;1863;-41
2023/03/01 04:08:02;;;;;;;;;;;;;;;;;;5092114;28;1713;-42
2023/03/01 04:10:31;;;;;;;;;;;;;;;;;;5074263;28;1941;-42
2023/03/01 04:12:59;;;;;;;;;;;;;;;;;;5070796;28;1974;-47
2023/03/01 04:15:26;;;;;;;;;;;;;;;;;;5071444;28;1790;-42
2023/03/01 04:17:55;;;;;;;;;;;;;;;;;;5086879;28;2302;-42
2023/03/01 04:20:27;;;;;;;;;;;;;;;;;;5071453;28;2004;-41
2023/03/01 04:22:58;;;;;;;;;;;;;;;;;;5071829;28;2141;-42
2023/03/01 04:25:25;;;;;;;;;;;;;;;;;;5070966;28;1943;-41
2023/03/01 04:27:52;;;;;;;;;;;;;;;;;;5071455;28;1786;-44
2023/03/01 04:30:19;;;;;;;;;;;;;;;;;;5071404;28;2271;-46
2023/03/01 04:32:47;;;;;;;;;;;;;;;;;;5087089;28;1728;-42
2023/03/01 04:35:14;;;;;;;;;;;;;;;;;;5091262;28;1490;-42
2023/03/01 04:37:41;;;;;;;;;;;;;;;;;;5091556;28;2019;-43
2023/03/01 04:40:15;;;;;;;;;;;;;;;;;;5091246;28;2008;-42
2023/03/01 04:42:42;;;;;;;;;;;;;;;;;;5090063;28;1994;-42
2023/03/01 04:45:12;;;;;;;;;;;;;;;;;;5091169;28;2051;-41
2023/03/01 04:47:40;;;;;;;;;;;;;;;;;;5091423;28;1659;-41
2023/03/01 04:50:08;;;;;;;;;;;;;;;;;;5091535;28;1481;-41
2023/03/01 04:52:36;;;;;;;;;;;;;;;;;;5091189;28;1597;-41
2023/03/01 04:55:03;;;;;;;;;;;;;;;;;;5091632;28;1911;-42
2023/03/01 04:57:30;;;;;;;;;;;;;;;;;;5091095;28;2123;-41
2023/03/01 04:59:57;;;;;;;;;;;;;;;;;;5091183;28;1980;-41
2023/03/01 05:02:24;;;;;;;;;;;;;;;;;;5091159;28;1628;-42
2023/03/01 05:04:57;;;;;;;;;;;;;;;;;;5086241;28;2317;-41
2023/03/01 05:07:26;;;;;;;;;;;;;;;;;;5071098;28;2007;-42
2023/03/01 05:09:54;;;;;;;;;;;;;;;;;;5083681;28;10158;-42
2023/03/01 05:12:23;;;;;;;;;;;;;;;;;;5091120;28;1843;-43
2023/03/01 05:14:51;;;;;;;;;;;;;;;;;;5091081;28;1514;-44
2023/03/01 05:17:18;;;;;;;;;;;;;;;;;;5090847;28;2090;-42
2023/03/01 05:19:46;;;;;;;;;;;;;;;;;;5090966;28;1916;-42
2023/03/01 05:22:13;;;;;;;;;;;;;;;;;;5091038;28;2123;-47
2023/03/01 05:24:40;;;;;;;;;;;;;;;;;;5094979;28;1877;-41
2023/03/01 05:27:07;;;;;;;;;;;;;;;;;;5094702;28;1664;-41
2023/03/01 05:29:35;;;;;;;;;;;;;;;;;;5094780;28;2109;-41
2023/03/01 05:32:02;;;;;;;;;;;;;;;;;;5094737;28;1900;-40
2023/03/01 05:34:34;;;;;;;;;;;;;;;;;;5094597;28;1851;-43
2023/03/01 05:37:01;;;;;;;;;;;;;;;;;;5094691;28;2248;-46
2023/03/01 05:39:29;;;;;;;;;;;;;;;;;;5094476;28;2201;-43
2023/03/01 05:41:58;;;;;;;;;;;;;;;;;;5094660;28;1777;-41
2023/03/01 05:44:25;;;;;;;;;;;;;;;;;;5094692;28;2294;-41
2023/03/01 05:46:52;;;;;;;;;;;;;;;;;;5094475;28;1727;-42
2023/03/01 05:49:20;;;;;;;;;;;;;;;;;;5094530;28;1510;-46
2023/03/01 05:51:48;;;;;;;;;;;;;;;;;;5094121;28;1830;-44
2023/03/01 05:54:16;;;;;;;;;;;;;;;;;;5094357;28;1622;-44
2023/03/01 05:56:43;;;;;;;;;;;;;;;;;;5094372;28;2169;-42
2023/03/01 05:59:11;;;;;;;;;;;;;;;;;;5094330;28;1949;-43
2023/03/01 06:01:38;;;;;;;;;;;;;;;;;;5094570;28;1927;-43
2023/03/01 06:04:05;;;;;;;;;;;;;;;;;;5094168;28;2158;-42
2023/03/01 06:06:39;;;;;;;;;;;;;;;;;;5113021;28;2337;-42
2023/03/01 06:09:07;;;;;;;;;;;;;;;;;;5114627;28;1825;-41
2023/03/01 06:11:35;;;;;;;;;;;;;;;;;;5114316;28;2214;-42
2023/03/01 06:14:02;;;;;;;;;;;;;;;;;;5114435;28;1995;-41
2023/03/01 06:16:29;;;;;;;;;;;;;;;;;;5114556;28;2079;-45
2023/03/01 06:18:56;;;;;;;;;;;;;;;;;;5114559;28;1960;-41
2023/03/01 06:21:24;;;;;;;;;;;;;;;;;;5114378;28;2132;-43
2023/03/01 06:23:51;;;;;;;;;;;;;;;;;;5114369;28;1708;-42
2023/03/01 06:26:18;;;;;;;;;;;;;;;;;;5114108;28;1380;-47
2023/03/01 06:28:46;;;;;;;;;;;;;;;;;;5114149;28;2142;-44
2023/03/01 06:31:13;;;;;;;;;;;;;;;;;;5111263;28;2059;-42
2023/03/01 06:33:40;;;;;;;;;;;;;;;;;;5075647;28;2360;-43
2023/03/01 06:36:08;;;;;;;;;;;;;;;;;;5092485;28;1744;-42
2023/03/01 06:38:35;;;;;;;;;;;;;;;;;;5093587;28;1864;-42
2023/03/01 06:41:02;;;;;;;;;;;;;;;;;;5093299;28;2132;-45
2023/03/01 06:43:29;;;;;;;;;;;;;;;;;;5092650;28;1990;-42
2023/03/01 06:45:56;;;;;;;;;;;;;;;;;;5092525;28;1463;-41
2023/03/01 06:48:24;;;;;;;;;;;;;;;;;;5093357;28;2051;-43
2023/03/01 06:50:51;;;;;;;;;;;;;;;;;;5093472;28;2111;-43
2023/03/01 06:53:18;;;;;;;;;;;;;;;;;;5093042;28;1848;-42
2023/03/01 06:55:46;;;;;;;;;;;;;;;;;;5093571;28;1952;-44
2023/03/01 06:58:14;;;;;;;;;;;;;;;;;;5093600;28;2146;-42
2023/03/01 07:00:42;;;;;;;;;;;;;;;;;;5093257;28;1985;-43
2023/03/01 07:03:10;;;;;;;;;;;;;;;;;;5092613;28;1872;-42
2023/03/01 07:05:37;;;;;;;;;;;;;;;;;;5103814;28;2011;-42
2023/03/01 07:08:04;;;;;;;;;;;;;;;;;;5113443;28;2119;-44
2023/03/01 07:10:32;;;;;;;;;;;;;;;;;;5113454;28;1800;-52
2023/03/01 07:12:59;;;;;;;;;;;;;;;;;;5113380;28;1604;-41
2023/03/01 07:15:27;;;;;;;;;;;;;;;;;;5113350;28;1542;-44
2023/03/01 07:17:54;;;;;;;;;;;;;;;;;;5113044;28;1797;-41
2023/03/01 07:20:25;;;;;;;;;;;;;;;;;;5113157;28;1909;-42
2023/03/01 07:22:52;;;;;;;;;;;;;;;;;;5113444;28;2061;-46
2023/03/01 07:25:20;;;;;;;;;;;;;;;;;;5113318;28;1894;-50
2023/03/01 07:27:51;;;;;;;;;;;;;;;;;;5113145;28;1474;-50
2023/03/01 07:30:19;;;;;;;;;;;;;;;;;;5113289;28;1955;-45
2023/03/01 07:32:46;;;;;;;;;;;;;;;;;;5097501;28;2048;-47
2023/03/01 07:35:14;;;;;;;;;;;;;;;;;;5092564;28;2317;-46
2023/03/01 07:37:41;;;;;;;;;;;;;;;;;;5092612;28;1582;-43
2023/03/01 07:40:09;;;;;;;;;;;;;;;;;;5092414;28;1906;-44
2023/03/01 07:42:37;;;;;;;;;;;;;;;;;;5092376;28;1892;-41
2023/03/01 07:45:05;;;;;;;;;;;;;;;;;;5092544;28;2083;-44
2023/03/01 07:47:32;;;;;;;;;;;;;;;;;;5091869;28;1840;-45
2023/03/01 07:50:00;;;;;;;;;;;;;;;;;;5091910;28;2077;-43
2023/03/01 07:52:28;;;;;;;;;;;;;;;;;;5092279;28;1983;-42
2023/03/01 07:54:56;;;;;;;;;;;;;;;;;;5092177;28;2022;-42
2023/03/01 07:57:23;;;;;;;;;;;;;;;;;;5092526;28;1843;-43
2023/03/01 07:59:50;;;;;;;;;;;;;;;;;;5092010;28;1906;-41
2023/03/01 08:02:17;;;;;;;;;;;;;;;;;;5091845;28;2173;-43
2023/03/01 08:04:45;;;;;;;;;;;;;;;;;;5095299;28;2031;-43
2023/03/01 08:07:12;;;;;;;;;;;;;;;;;;5092610;28;1759;-45
2023/03/01 08:09:39;;;;;;;;;;;;;;;;;;5091953;28;2096;-43
2023/03/01 08:12:09;;;;;;;;;;;;;;;;;;5091810;28;1978;-42
2023/03/01 08:14:36;;;;;;;;;;;;;;;;;;5091725;28;1933;-42
2023/03/01 08:17:03;;;;;;;;;;;;;;;;;;5091820;28;2020;-42
2023/03/01 08:19:30;;;;;;;;;;;;;;;;;;5091948;28;2063;-46
2023/03/01 08:21:58;;;;;;;;;;;;;;;;;;5091674;28;1913;-50
2023/03/01 08:24:25;;;;;;;;;;;;;;;;;;5091554;28;2190;-49
2023/03/01 08:26:52;;;;;;;;;;;;;;;;;;5091327;28;1690;-43
2023/03/01 08:29:20;;;;;;;;;;;;;;;;;;5073528;28;1993;-45
2023/03/01 08:31:47;;;;;;;;;;;;;;;;;;5099271;28;1941;-43
2023/03/01 08:34:15;;;;;;;;;;;;;;;;;;5096057;28;2300;-42
2023/03/01 08:36:44;;;;;;;;;;;;;;;;;;5091548;28;1816;-46
2023/03/01 08:39:12;;;;;;;;;;;;;;;;;;5091445;28;1794;-44
2023/03/01 08:41:40;;;;;;;;;;;;;;;;;;5090892;28;1974;-44
2023/03/01 08:44:09;;;;;;;;;;;;;;;;;;5091592;28;1968;-45
2023/03/01 08:46:38;;;;;;;;;;;;;;;;;;5091336;28;1922;-44
2023/03/01 08:49:06;;;;;;;;;;;;;;;;;;5091060;28;1869;-43
2023/03/01 08:51:36;;;;;;;;;;;;;;;;;;5091245;28;1564;-41
2023/03/01 08:54:07;;;;;;;;;;;;;;;;;;5090743;28;1969;-44
2023/03/01 08:56:34;;;;;;;;;;;;;;;;;;5091338;28;1719;-44
2023/03/01 08:59:02;;;;;;;;;;;;;;;;;;5096651;28;2027;-48
2023/03/01 09:01:29;;;;;;;;;;;;;;;;;;5098022;28;2234;-42
2023/03/01 09:03:56;;;;;;;;;;;;;;;;;;5098002;28;2109;-45
2023/03/01 09:06:24;;;;;;;;;;;;;;;;;;5115403;28;1864;-42
2023/03/01 09:08:51;;;;;;;;;;;;;;;;;;5118082;28;1510;-42
2023/03/01 09:11:20;;;;;;;;;;;;;;;;;;5117956;28;1969;-44
2023/03/01 09:13:47;;;;;;;;;;;;;;;;;;5118458;28;2289;-44
2023/03/01 09:16:17;;;;;;;;;;;;;;;;;;5118271;28;2345;-42
2023/03/01 09:18:45;;;;;;;;;;;;;;;;;;5118487;28;2077;-45
2023/03/01 09:21:13;;;;;;;;;;;;;;;;;;5118138;28;2142;-44
2023/03/01 09:23:42;;;;;;;;;;;;;;;;;;5118176;28;1988;-44
2023/03/01 09:26:10;;;;;;;;;;;;;;;;;;5118263;28;1961;-46
2023/03/01 09:28:38;;;;;;;;;;;;;;;;;;5117838;28;2114;-43
2023/03/01 09:31:05;;;;;;;;;;;;;;;;;;5116098;28;1825;-43
2023/03/01 09:33:33;;;;;;;;;;;;;;;;;;5097767;28;1868;-41
2023/03/01 09:36:04;;;;;;;;;;;;;;;;;;5097497;28;1706;-43
2023/03/01 09:38:31;;;;;;;;;;;;;;;;;;5098121;28;1827;-45
2023/03/01 09:40:59;;;;;;;;;;;;;;;;;;5097560;28;2389;-43
2023/03/01 09:43:35;;;;;;;;;;;;;;;;;;5097842;28;1974;-43
2023/03/01 09:46:07;;;;;;;;;;;;;;;;;;5097372;28;2028;-43
2023/03/01 09:48:53;;;;;;;;;;;;;;;;;;5097280;28;2026;-43
2023/03/01 09:51:26;;;;;;;;;;;;;;;;;;5097219;28;1933;-43
2023/03/01 09:53:55;;;;;;;;;;;;;;;;;;5097814;28;1776;-42
2023/03/01 09:56:29;;;;;;;;;;;;;;;;;;5097652;28;2085;-46
2023/03/01 09:59:03;;;;;;;;;;;;;;;;;;5097844;28;1821;-47
2023/03/01 10:01:35;;;;;;;;;;;;;;;;;;5097624;28;1977;-44
2023/03/01 10:04:21;;;;;;;;;;;;;;;;;;5097328;28;1821;-41
2023/03/01 10:07:06;;;;;;;;;;;;;;;;;;5097484;28;2048;-44
2023/03/01 10:09:35;;;;;;;;;;;;;;;;;;5094777;28;1522;-44
2023/03/01 10:12:04;;;;;;;;;;;;;;;;;;5093987;28;2000;-47
2023/03/01 10:14:37;;;;;;;;;;;;;;;;;;5093883;28;1830;-44
2023/03/01 10:17:08;;;;;;;;;;;;;;;;;;5094175;28;1508;-46
2023/03/01 10:19:40;;;;;;;;;;;;;;;;;;5093677;28;2131;-48
2023/03/01 10:22:22;;;;;;;;;;;;;;;;;;5093952;28;1918;-45
2023/03/01 10:24:51;;;;;;;;;;;;;;;;;;5093804;28;2099;-46
2023/03/01 10:27:25;;;;;;;;;;;;;;;;;;5094089;28;1684;-42
2023/03/01 10:30:02;;;;;;;;;;;;;;;;;;5093600;28;1621;-45
2023/03/01 10:32:29;;;;;;;;;;;;;;;;;;5107240;28;1982;-44
2023/03/01 10:34:57;;;;;;;;;;;;;;;;;;5101585;28;2072;-45
2023/03/01 10:37:25;;;;;;;;;;;;;;;;;;5093771;28;1857;-43
2023/03/01 10:40:06;;;;;;;;;;;;;;;;;;5093635;28;1805;-48
2023/03/01 10:42:53;;;;;;;;;;;;;;;;;;5093142;28;2013;-45
2023/03/01 10:45:29;;;;;;;;;;;;;;;;;;5093305;28;1841;-44
2023/03/01 10:48:13;;;;;;;;;;;;;;;;;;5094061;28;1854;-44
2023/03/01 10:50:41;;;;;;;;;;;;;;;;;;5093356;28;2007;-44
2023/03/01 10:53:26;;;;;;;;;;;;;;;;;;5093144;28;1652;-43
2023/03/01 10:55:57;;;;;;;;;;;;;;;;;;5093429;28;1978;-43
2023/03/01 10:58:24;;;;;;;;;;;;;;;;;;5093216;28;1833;-42
2023/03/01 11:00:54;;;;;;;;;;;;;;;;;;5093406;28;1998;-44
2023/03/01 11:03:23;;;;;;;;;;;;;;;;;;5092907;28;1730;-42
2023/03/01 11:05:55;;;;;;;;;;;;;;;;;;5106015;28;2318;-48
2023/03/01 11:08:39;;;;;;;;;;;;;;;;;;5113448;28;1656;-50
2023/03/01 11:11:09;;;;;;;;;;;;;;;;;;5113351;28;1811;-47
2023/03/01 11:13:39;;;;;;;;;;;;;;;;;;5113267;28;1602;-41
2023/03/01 11:16:07;;;;;;;;;;;;;;;;;;5113027;28;1776;-43
2023/03/01 11:18:34;;;;;;;;;;;;;;;;;;5113568;28;2148;-45
2023/03/01 11:21:14;;;;;;;;;;;;;;;;;;5112976;28;2149;-43
2023/03/01 11:23:43;;;;;;;;;;;;;;;;;;5113190;28;1778;-48
2023/03/01 11:26:12;;;;;;;;;;;;;;;;;;5112990;28;1828;-44
2023/03/01 11:28:40;;;;;;;;;;;;;;;;;;5113068;28;1993;-43
2023/03/01 11:31:11;;;;;;;;;;;;;;;;;;5110776;28;2093;-42
2023/03/01 11:33:48;;;;;;;;;;;;;;;;;;5092491;28;2140;-41
2023/03/01 11:36:21;;;;;;;;;;;;;;;;;;5092361;28;1915;-45
2023/03/01 11:38:49;;;;;;;;;;;;;;;;;;5092426;28;1823;-44
2023/03/01 11:41:18;;;;;;;;;;;;;;;;;;5092395;28;2181;-45
2023/03/01 11:43:45;;;;;;;;;;;;;;;;;;5092345;28;1992;-44
2023/03/01 11:46:33;;;;;;;;;;;;;;;;;;5092478;28;1720;-43
2023/03/01 11:49:00;;;;;;;;;;;;;;;;;;5092406;28;1982;-44
2023/03/01 11:51:47;;;;;;;;;;;;;;;;;;5091867;28;1818;-46
2023/03/01 11:54:26;;;;;;;;;;;;;;;;;;5061243;28;2164;-45
2023/03/01 11:57:00;;;;;;;;;;;;;;;;;;5092193;28;1943;-43
2023/03/01 11:59:37;;;;;;;;;;;;;;;;;;5092304;28;2051;-44
2023/03/01 12:02:04;;;;;;;;;;;;;;;;;;5092349;28;1917;-43
2023/03/01 12:04:52;;;;;;;;;;;;;;;;;;5093986;28;1330;-42
2023/03/01 12:07:38;;;;;;;;;;;;;;;;;;5112270;28;2104;-43
2023/03/01 12:10:08;;;;;;;;;;;;;;;;;;5112084;28;1788;-41
2023/03/01 12:12:38;;;;;;;;;;;;;;;;;;5112110;28;2290;-44
2023/03/01 12:15:33;;;;;;;;;;;;;;;;;;5112569;28;1843;-42
2023/03/01 12:18:13;;;;;;;;;;;;;;;;;;5112211;28;1875;-43
2023/03/01 12:20:55;;;;;;;;;;;;;;;;;;5112074;28;2045;-43
2023/03/01 12:23:25;;;;;;;;;;;;;;;;;;5112003;28;1964;-46
2023/03/01 12:26:08;;;;;;;;;;;;;;;;;;5112048;28;1914;-43
2023/03/01 12:28:41;;;;;;;;;;;;;;;;;;5112276;28;1912;-43
2023/03/01 12:31:28;;;;;;;;;;;;;;;;;;5109668;28;2175;-43
2023/03/01 12:34:01;;;;;;;;;;;;;;;;;;5090790;28;2007;-45
2023/03/01 12:36:34;;;;;;;;;;;;;;;;;;5091094;28;1819;-43
2023/03/01 12:39:08;;;;;;;;;;;;;;;;;;5091417;28;1786;-45
2023/03/01 12:41:43;;;;;;;;;;;;;;;;;;5091566;28;1978;-47
2023/03/01 12:44:10;;;;;;;;;;;;;;;;;;5091103;28;1959;-43
2023/03/01 12:46:56;;;;;;;;;;;;;;;;;;5091520;28;1709;-43
2023/03/01 12:49:46;;;;;;;;;;;;;;;;;;5091214;28;2093;-44
2023/03/01 12:52:16;;;;;;;;;;;;;;;;;;5082859;28;1560;-43
2023/03/01 12:54:44;;;;;;;;;;;;;;;;;;5073331;28;2362;-44
2023/03/01 12:57:20;;;;;;;;;;;;;;;;;;5090828;28;1751;-43
2023/03/01 13:00:00;;;;;;;;;;;;;;;;;;5091525;28;2211;-41
2023/03/01 13:02:35;;;;;;;;;;;;;;;;;;5091084;28;1905;-43
2023/03/01 13:05:05;;;;;;;;;;;;;;;;;;5096783;28;1917;-43
2023/03/01 13:07:39;;;;;;;;;;;;;;;;;;5111518;28;2242;-43
2023/03/01 13:10:26;;;;;;;;;;;;;;;;;;5111502;28;1586;-45
2023/03/01 13:12:59;;;;;;;;;;;;;;;;;;5110976;28;2140;-43
2023/03/01 13:15:27;;;;;;;;;;;;;;;;;;5111277;28;1420;-44
2023/03/01 13:17:55;;;;;;;;;;;;;;;;;;5109605;28;1985;-42
2023/03/01 13:20:33;;;;;;;;;;;;;;;;;;5072698;28;2022;-44
2023/03/01 13:23:24;;;;;;;;;;;;;;;;;;5090359;28;1933;-46
2023/03/01 13:26:02;;;;;;;;;;;;;;;;;;5076742;28;1253;-47
2023/03/01 13:28:40;;;;;;;;;;;;;;;;;;5090897;28;1740;-45
2023/03/01 13:31:09;;;;;;;;;;;;;;;;;;5090798;28;1724;-45
2023/03/01 13:33:55;;;;;;;;;;;;;;;;;;5090516;28;1985;-44
2023/03/01 13:36:28;;;;;;;;;;;;;;;;;;5090433;28;2075;-43
2023/03/01 13:39:26;;;;;;;;;;;;;;;;;;5090706;28;1862;-43
2023/03/01 13:41:54;;;;;;;;;;;;;;;;;;5090594;28;1982;-45
2023/03/01 13:44:28;;;;;;;;;;;;;;;;;;5092185;28;1685;-45
2023/03/01 13:47:02;;;;;;;;;;;;;;;;;;5094530;28;2087;-42
2023/03/01 13:49:35;;;;;;;;;;;;;;;;;;5094570;28;2049;-43
2023/03/01 13:52:35;;;;;;;;;;;;;;;;;;5094073;28;2166;-46
2023/03/01 13:55:06;;;;;;;;;;;;;;;;;;5086640;28;1909;-44
2023/03/01 13:57:35;;;;;;;;;;;;;;;;;;5094160;28;1864;-43
2023/03/01 14:00:04;;;;;;;;;;;;;;;;;;5111369;28;1928;-46
2023/03/01 14:02:34;;;;;;;;;;;;;;;;;;5114157;28;2119;-43
2023/03/01 14:05:03;;;;;;;;;;;;;;;;;;5108856;28;2073;-42
2023/03/01 14:07:30;;;;;;;;;;;;;;;;;;5093929;28;1310;-43
2023/03/01 14:10:03;;;;;;;;;;;;;;;;;;5076102;28;1867;-42
2023/03/01 14:12:33;;;;;;;;;;;;;;;;;;5093921;28;2233;-43
2023/03/01 14:15:05;;;;;;;;;;;;;;;;;;5093900;28;1965;-44
2023/03/01 14:17:38;;;;;;;;;;;;;;;;;;5093853;28;2042;-43
2023/03/01 14:20:31;;;;;;;;;;;;;;;;;;5093604;28;2274;-43
2023/03/01 14:23:01;;;;;;;;;;;;;;;;;;5089613;28;1903;-42
2023/03/01 14:25:31;;;;;;;;;;;;;;;;;;5093597;28;2141;-43
2023/03/01 14:28:33;;;;;;;;;;;;;;;;;;5093468;28;2000;-41
2023/03/01 14:31:01;;;;;;;;;;;;;;;;;;5061878;28;1552;-45
2023/03/01 14:33:30;;;;;;;;;;;;;;;;;;5113782;28;2333;-42
2023/03/01 14:36:04;;;;;;;;;;;;;;;;;;5113775;28;2213;-47
2023/03/01 14:38:39;;;;;;;;;;;;;;;;;;5114160;28;2218;-44
2023/03/01 14:41:11;;;;;;;;;;;;;;;;;;5113704;28;1712;-42
2023/03/01 14:43:44;;;;;;;;;;;;;;;;;;5114090;28;1985;-43
2023/03/01 14:46:19;;;;;;;;;;;;;;;;;;5113776;28;2180;-42
2023/03/01 14:48:51;;;;;;;;;;;;;;;;;;5113842;28;1944;-43
2023/03/01 14:51:18;;;;;;;;;;;;;;;;;;5113512;28;1883;-43
2023/03/01 14:53:45;;;;;;;;;;;;;;;;;;5113778;28;2077;-44
2023/03/01 14:56:18;;;;;;;;;;;;;;;;;;5112760;28;1930;-42
2023/03/01 14:58:49;;;;;;;;;;;;;;;;;;5095165;28;2289;-42
2023/03/01 15:01:17;;;;;;;;;;;;;;;;;;5109154;28;1845;-44
2023/03/01 15:03:49;;;;;;;;;;;;;;;;;;5074828;28;1907;-42
2023/03/01 15:06:18;;;;;;;;;;;;;;;;;;5109360;28;1859;-42
2023/03/01 15:08:47;;;;;;;;;;;;;;;;;;5113647;28;2095;-43
2023/03/01 15:11:26;;;;;;;;;;;;;;;;;;5113127;28;1736;-42
2023/03/01 15:13:54;;;;;;;;;;;;;;;;;;5113013;28;1727;-43
2023/03/01 15:16:24;;;;;;;;;;;;;;;;;;5113076;28;2073;-42
2023/03/01 15:18:55;;;;;;;;;;;;;;;;;;5113013;28;2001;-42
2023/03/01 15:21:24;;;;;;;;;;;;;;;;;;5112893;28;1797;-42
2023/03/01 15:23:54;;;;;;;;;;;;;;;;;;5108707;28;1972;-42
2023/03/01 15:26:23;;;;;;;;;;;;;;;;;;5092564;28;1741;-42
2023/03/01 15:28:51;;;;;;;;;;;;;;;;;;5092352;28;1964;-45
2023/03/01 15:31:18;;;;;;;;;;;;;;;;;;5095988;28;1797;-43
2023/03/01 15:33:47;;;;;;;;;;;;;;;;;;5113168;28;1667;-45
2023/03/01 15:36:31;;;;;;;;;;;;;;;;;;5112785;28;2039;-44
2023/03/01 15:38:59;;;;;;;;;;;;;;;;;;5112666;28;2035;-46
2023/03/01 15:41:30;;;;;;;;;;;;;;;;;;5112748;28;2403;-48
2023/03/01 15:43:59;;;;;;;;;;;;;;;;;;5112489;28;2234;-43
2023/03/01 15:46:33;;;;;;;;;;;;;;;;;;5112403;28;2087;-48
2023/03/01 15:49:03;;;;;;;;;;;;;;;;;;5112370;28;1687;-39
2023/03/01 15:51:30;;;;;;;;;;;;;;;;;;5112445;28;1680;-42
2023/03/01 15:53:58;;;;;;;;;;;;;;;;;;5112558;28;1445;-39
2023/03/01 15:56:26;;;;;;;;;;;;;;;;;;5093108;28;1974;-43
2023/03/01 15:58:56;;;;;;;;;;;;;;;;;;5091934;28;1973;-42
2023/03/01 16:01:24;;;;;;;;;;;;;;;;;;5090468;28;1956;-44
2023/03/01 16:03:51;;;;;;;;;;;;;;;;;;5092022;28;1947;-42
2023/03/01 16:06:18;;;;;;;;;;;;;;;;;;5108489;28;1938;-49
2023/03/01 16:08:45;;;;;;;;;;;;;;;;;;5110952;28;2096;-44
2023/03/01 16:11:17;;;;;;;;;;;;;;;;;;5111981;28;1786;-46
2023/03/01 16:13:45;;;;;;;;;;;;;;;;;;5111798;28;1600;-45
2023/03/01 16:16:15;;;;;;;;;;;;;;;;;;5112377;28;2312;-42
2023/03/01 16:18:43;;;;;;;;;;;;;;;;;;5111852;28;1920;-41
2023/03/01 16:21:19;;;;;;;;;;;;;;;;;;5098993;28;2375;-47
2023/03/01 16:23:47;;;;;;;;;;;;;;;;;;5091947;28;2210;-47
2023/03/01 16:26:14;;;;;;;;;;;;;;;;;;5091717;28;1598;-43
2023/03/01 16:28:42;;;;;;;;;;;;;;;;;;5091458;28;2134;-42
2023/03/01 16:31:09;;;;;;;;;;;;;;;;;;5093938;28;2308;-42
2023/03/01 16:33:37;;;;;;;;;;;;;;;;;;5093477;28;1587;-45
2023/03/01 16:36:08;;;;;;;;;;;;;;;;;;5111354;28;2245;-43
2023/03/01 16:38:35;;;;;;;;;;;;;;;;;;5111617;28;2111;-43
2023/03/01 16:41:03;;;;;;;;;;;;;;;;;;5111633;28;1779;-46
2023/03/01 16:43:30;;;;;;;;;;;;;;;;;;5111438;28;1944;-42
2023/03/01 16:45:58;;;;;;;;;;;;;;;;;;5111723;28;1858;-43
2023/03/01 16:48:26;;;;;;;;;;;;;;;;;;5111602;28;1686;-43
2023/03/01 16:50:57;;;;;;;;;;;;;;;;;;5111726;28;1993;-45
2023/03/01 16:53:24;;;;;;;;;;;;;;;;;;5111554;28;1796;-42
2023/03/01 16:55:55;;;;;;;;;;;;;;;;;;5111796;28;1917;-43
2023/03/01 16:58:24;;;;;;;;;;;;;;;;;;5111705;28;2237;-49
2023/03/01 17:00:56;;;;;;;;;;;;;;;;;;5111577;28;1981;-43
2023/03/01 17:03:24;;;;;;;;;;;;;;;;;;5111447;28;1978;-44
2023/03/01 17:05:52;;;;;;;;;;;;;;;;;;5098042;28;2300;-41
2023/03/01 17:08:19;;;;;;;;;;;;;;;;;;5090555;28;1943;-41
2023/03/01 17:10:46;;;;;;;;;;;;;;;;;;5091275;28;1568;-43
2023/03/01 17:13:14;;;;;;;;;;;;;;;;;;5072804;28;2059;-42
2023/03/01 17:15:41;;;;;;;;;;;;;;;;;;5090897;28;1730;-41
2023/03/01 17:18:08;;;;;;;;;;;;;;;;;;5090667;28;1893;-41
2023/03/01 17:20:35;;;;;;;;;;;;;;;;;;5094756;28;1763;-41
2023/03/01 17:23:03;;;;;;;;;;;;;;;;;;5094714;28;1915;-42
2023/03/01 17:25:30;;;;;;;;;;;;;;;;;;5095032;28;2044;-41